createdAt,value
2019-01-13T00:02:16.002Z,4.63
2019-01-13T00:07:19.472Z,5.70
2019-01-13T00:12:22.897Z,7.23
2019-01-13T00:17:26.344Z,6.83
2019-01-13T00:22:29.786Z,6.80
2019-01-13T00:27:33.213Z,6.20
2019-01-13T00:32:36.635Z,6.93
2019-01-13T00:37:40.079Z,5.30
2019-01-13T00:42:43.624Z,7.60
2019-01-13T00:47:47.141Z,6.33
2019-01-13T00:52:50.575Z,7.53
2019-01-13T00:57:53.997Z,7.03
2019-01-13T01:02:57.455Z,8.00
2019-01-13T01:08:00.866Z,7.60
2019-01-13T01:13:04.538Z,7.90
2019-01-13T01:18:07.988Z,6.70
2019-01-13T01:23:11.478Z,7.27
2019-01-13T01:28:14.982Z,7.43
2019-01-13T01:33:25.721Z,6.37
2019-01-13T01:38:23.592Z,8.20
2019-01-13T01:43:27.218Z,7.13
2019-01-13T01:48:30.651Z,9.27
2019-01-13T01:53:34.157Z,9.40
2019-01-13T01:58:37.611Z,10.10
2019-01-13T02:03:41.069Z,10.60
2019-01-13T02:08:44.494Z,9.47
2019-01-13T02:13:47.949Z,9.47
2019-01-13T02:18:51.474Z,9.23
2019-01-13T02:23:54.925Z,10.27
2019-01-13T02:28:58.355Z,10.83
2019-01-13T02:34:01.798Z,11.77
2019-01-13T02:39:07.386Z,11.97
2019-01-13T02:44:10.817Z,12.80
2019-01-13T02:49:14.258Z,11.30
2019-01-13T02:54:17.703Z,13.47
2019-01-13T02:59:21.426Z,9.80
2019-01-13T03:04:24.927Z,10.40
2019-01-13T03:09:28.383Z,11.17
2019-01-13T03:14:31.885Z,12.30
2019-01-13T03:19:35.340Z,12.37
2019-01-13T03:24:38.781Z,12.20
2019-01-13T03:29:42.226Z,14.37
2019-01-13T03:34:45.685Z,13.03
2019-01-13T03:39:49.364Z,11.73
2019-01-13T03:44:52.798Z,13.37
2019-01-13T03:49:56.231Z,12.33
2019-01-13T03:54:59.662Z,14.17
2019-01-13T04:00:05.167Z,12.90
2019-01-13T04:05:08.907Z,13.00
2019-01-13T04:10:14.571Z,15.13
2019-01-13T04:15:32.182Z,12.97
2019-01-13T04:20:35.630Z,14.40
2019-01-13T04:25:39.069Z,13.67
2019-01-13T04:30:42.519Z,15.63
2019-01-13T04:35:45.974Z,16.37
2019-01-13T04:40:49.404Z,16.57
2019-01-13T04:45:52.826Z,15.10
2019-01-13T04:50:56.258Z,14.73
2019-01-13T04:55:59.706Z,14.77
2019-01-13T05:01:03.141Z,13.13
2019-01-13T05:06:06.573Z,14.17
2019-01-13T05:11:10.073Z,14.23
2019-01-13T05:16:13.579Z,12.80
2019-01-13T05:21:17.035Z,11.77
2019-01-13T05:26:20.458Z,13.80
2019-01-13T05:31:23.937Z,15.03
2019-01-13T05:36:27.349Z,13.30
2019-01-13T05:41:30.778Z,13.63
2019-01-13T05:46:34.459Z,13.10
2019-01-13T05:51:37.892Z,13.80
2019-01-13T05:56:41.539Z,16.53
2019-01-13T06:01:49.174Z,13.93
2019-01-13T06:06:50.179Z,15.40
2019-01-13T06:11:53.610Z,14.93
2019-01-13T06:16:57.056Z,14.30
2019-01-13T06:22:00.592Z,15.60
2019-01-13T06:27:04.083Z,15.53
2019-01-13T06:32:07.530Z,14.90
2019-01-13T06:37:10.998Z,13.37
2019-01-13T06:42:14.430Z,13.57
2019-01-13T06:47:17.856Z,15.43
2019-01-13T06:52:21.288Z,15.20
2019-01-13T06:57:24.728Z,17.70
2019-01-13T07:02:28.246Z,16.17
2019-01-13T07:07:31.676Z,17.40
2019-01-13T07:12:35.162Z,19.63
2019-01-13T07:17:38.572Z,17.73
2019-01-13T07:22:43.036Z,18.03
2019-01-13T07:27:46.544Z,17.87
2019-01-13T07:32:50.033Z,17.27
2019-01-13T07:37:53.483Z,18.63
2019-01-13T07:42:56.965Z,17.97
2019-01-13T07:48:00.392Z,17.17
2019-01-13T07:53:04.104Z,16.63
2019-01-13T07:58:07.557Z,17.07
2019-01-13T08:03:11.049Z,16.40
2019-01-13T08:08:14.492Z,15.80
2019-01-13T08:13:17.920Z,17.37
2019-01-13T08:18:21.351Z,16.37
2019-01-13T08:23:24.792Z,15.93
2019-01-13T08:28:28.218Z,15.63
2019-01-13T08:33:31.661Z,15.83
2019-01-13T08:38:35.091Z,13.43
2019-01-13T08:43:38.542Z,14.37
2019-01-13T08:48:41.993Z,11.43
2019-01-13T08:53:45.438Z,10.67
2019-01-13T08:58:49.162Z,9.20
2019-01-13T09:03:52.675Z,8.80
2019-01-13T09:08:56.123Z,8.47
2019-01-13T09:13:59.558Z,7.20
2019-01-13T09:19:02.961Z,6.67
2019-01-13T09:24:06.398Z,6.20
2019-01-13T09:29:09.833Z,6.33
2019-01-13T09:34:13.253Z,6.10
2019-01-13T09:39:16.582Z,7.33
2019-01-13T09:44:19.994Z,4.87
2019-01-13T09:49:23.486Z,5.30
2019-01-13T09:54:26.929Z,6.27
2019-01-13T09:59:30.353Z,5.93
2019-01-13T10:04:33.766Z,4.73
2019-01-13T10:09:37.193Z,5.83
2019-01-13T10:14:40.621Z,6.07
2019-01-13T10:19:44.059Z,4.47
2019-01-13T10:24:47.478Z,4.40
2019-01-13T10:29:50.906Z,3.87
2019-01-13T10:34:54.466Z,4.93
2019-01-13T10:39:57.918Z,7.97
2019-01-13T10:45:01.382Z,19.27
2019-01-13T10:50:08.190Z,23.87
2019-01-13T10:55:11.863Z,34.40
2019-01-13T11:00:18.350Z,19.10
2019-01-13T11:05:21.896Z,6.67
2019-01-13T11:10:25.660Z,9.30
2019-01-13T11:15:29.172Z,9.10
2019-01-13T11:20:34.435Z,5.93
2019-01-13T11:25:38.178Z,3.83
2019-01-13T11:30:41.607Z,4.27
2019-01-13T11:35:46.007Z,5.40
2019-01-13T11:40:49.506Z,2.83
2019-01-13T11:45:52.937Z,3.20
2019-01-13T11:50:56.351Z,3.57
2019-01-13T11:55:59.777Z,3.10
2019-01-13T12:01:03.233Z,3.40
2019-01-13T12:06:06.795Z,2.13
2019-01-13T12:11:10.308Z,2.63
2019-01-13T12:16:13.728Z,2.30
2019-01-13T12:21:17.247Z,2.40
2019-01-13T12:26:20.673Z,2.13
2019-01-13T12:31:24.111Z,1.73
2019-01-13T12:36:27.525Z,2.00
2019-01-13T12:41:30.954Z,1.77
2019-01-13T12:46:34.365Z,1.67
2019-01-13T12:51:37.788Z,1.50
2019-01-13T12:56:41.225Z,2.17
2019-01-13T13:01:44.664Z,1.60
2019-01-13T13:06:48.102Z,2.03
2019-01-13T13:11:51.537Z,1.60
2019-01-13T13:16:54.980Z,1.90
2019-01-13T13:21:58.430Z,1.80
2019-01-13T13:27:01.846Z,1.60
2019-01-13T13:32:05.336Z,1.80
2019-01-13T13:37:08.831Z,1.33
2019-01-13T13:42:12.515Z,1.60
2019-01-13T13:47:15.928Z,2.27
2019-01-13T13:52:21.156Z,1.70
2019-01-13T13:58:20.827Z,1.77
2019-01-13T14:03:24.339Z,1.60
2019-01-13T14:08:27.869Z,2.23
2019-01-13T14:13:31.264Z,3.37
2019-01-13T14:18:40.718Z,2.33
2019-01-13T14:23:51.507Z,2.70
2019-01-13T14:29:03.801Z,2.20
2019-01-13T14:34:21.286Z,2.63
2019-01-13T14:39:16.157Z,2.07
2019-01-13T14:44:22.160Z,2.03
2019-01-13T14:49:37.372Z,1.80
2019-01-13T14:54:44.896Z,2.23
2019-01-13T14:59:54.237Z,2.90
2019-01-13T15:05:07.233Z,1.80
2019-01-13T15:10:14.202Z,1.67
2019-01-13T15:15:24.026Z,2.50
2019-01-13T15:20:34.478Z,3.13
2019-01-13T15:25:42.590Z,2.80
2019-01-13T15:30:52.813Z,2.70
2019-01-13T15:41:32.352Z,2.73
2019-01-13T15:46:49.122Z,2.30
2019-01-13T15:52:05.342Z,3.00
2019-01-13T15:57:02.864Z,4.47
2019-01-13T16:02:08.464Z,5.20
2019-01-13T16:07:20.018Z,5.43
2019-01-13T16:12:23.503Z,5.33
2019-01-13T16:17:29.547Z,5.33
2019-01-13T16:22:36.021Z,5.87
2019-01-13T16:27:48.111Z,5.70
2019-01-13T16:32:53.546Z,6.10
2019-01-13T16:38:01.782Z,6.43
2019-01-13T16:43:10.203Z,5.33
2019-01-13T16:48:15.652Z,5.70
2019-01-13T16:53:23.484Z,5.07
2019-01-13T16:58:35.406Z,5.57
2019-01-13T17:04:05.071Z,4.33
2019-01-13T17:09:12.562Z,5.60
2019-01-13T17:14:26.564Z,4.40
2019-01-13T17:19:32.832Z,2.37
2019-01-13T17:24:41.665Z,2.27
2019-01-13T17:29:43.737Z,2.70
2019-01-13T17:34:53.264Z,3.13
2019-01-13T17:39:57.058Z,4.47
2019-01-13T17:45:11.557Z,3.73
2019-01-13T17:50:27.853Z,3.53
2019-01-13T17:55:33.841Z,3.80
2019-01-13T18:00:46.602Z,3.90
2019-01-13T18:05:52.197Z,3.13
2019-01-13T18:11:00.492Z,12.17
2019-01-13T18:16:04.001Z,4.50
2019-01-13T18:21:07.432Z,2.93
2019-01-13T18:26:10.977Z,4.13
2019-01-13T18:31:14.432Z,6.27
2019-01-13T18:36:20.995Z,5.30
2019-01-13T18:41:26.851Z,3.67
2019-01-13T18:46:37.536Z,3.37
2019-01-13T18:51:37.565Z,3.80
2019-01-13T18:56:41.261Z,3.47
2019-01-13T19:01:48.089Z,4.23
2019-01-13T19:06:51.667Z,3.33
2019-01-13T19:11:55.073Z,5.83
2019-01-13T19:16:59.503Z,2.60
2019-01-13T19:22:10.084Z,2.87
2019-01-13T19:27:12.750Z,3.87
2019-01-13T19:32:19.074Z,4.30
2019-01-13T19:37:34.355Z,3.23
2019-01-13T19:42:37.979Z,4.30
2019-01-13T19:47:44.514Z,2.47
2019-01-13T19:52:48.060Z,3.70
2019-01-13T19:57:51.515Z,3.80
2019-01-13T20:02:54.991Z,4.10
2019-01-13T20:07:58.544Z,4.53
2019-01-13T20:13:02.006Z,3.20
2019-01-13T20:18:05.510Z,4.23
2019-01-13T20:23:08.944Z,3.20
2019-01-13T20:28:12.378Z,3.73
2019-01-13T20:33:15.817Z,3.77
2019-01-13T20:38:19.258Z,7.97
2019-01-13T20:43:22.672Z,2.07
2019-01-13T20:48:26.247Z,3.50
2019-01-13T20:53:29.675Z,2.77
2019-01-13T20:58:33.196Z,2.83
2019-01-13T21:03:36.636Z,2.63
2019-01-13T21:08:40.126Z,2.27
2019-01-13T21:13:43.582Z,2.00
2019-01-13T21:18:47.576Z,2.70
2019-01-13T21:23:51.135Z,4.97
2019-01-13T21:28:54.562Z,2.77
2019-01-13T21:33:58.047Z,3.93
2019-01-13T21:39:01.500Z,3.13
2019-01-13T21:44:05.107Z,3.73
2019-01-13T21:49:08.609Z,4.63
2019-01-13T21:54:12.081Z,3.03
2019-01-13T21:59:15.607Z,3.27
2019-01-13T22:04:19.054Z,2.57
2019-01-13T22:09:22.472Z,2.20
2019-01-13T22:14:25.939Z,3.43
2019-01-13T22:19:29.380Z,2.40
2019-01-13T22:24:32.804Z,3.03
2019-01-13T22:29:36.260Z,3.40
2019-01-13T22:34:39.767Z,4.13
2019-01-13T22:39:43.191Z,3.83
2019-01-13T22:44:46.604Z,3.40
2019-01-13T22:49:50.054Z,3.43
2019-01-13T22:54:53.542Z,5.33
2019-01-13T22:59:57.051Z,3.80
2019-01-13T23:05:00.549Z,2.43
2019-01-13T23:10:08.950Z,2.90
2019-01-13T23:15:12.475Z,2.67
2019-01-13T23:20:16.191Z,3.53
2019-01-13T23:25:19.631Z,2.70
2019-01-13T23:30:23.244Z,3.90
2019-01-13T23:35:26.671Z,3.27
2019-01-13T23:40:30.109Z,4.97
2019-01-13T23:45:33.696Z,3.83
2019-01-13T23:50:37.214Z,2.20
2019-01-13T23:55:40.698Z,3.13
